createdAt,value
2023-01-17T00:01:50.289Z,94897.59
2023-01-17T00:04:35.268Z,94902.44
2023-01-17T00:07:20.490Z,94905.81
2023-01-17T00:09:54.159Z,94910.91
2023-01-17T00:12:22.098Z,94913.53
2023-01-17T00:14:50.113Z,94915.53
2023-01-17T00:17:18.890Z,94911.63
2023-01-17T00:20:04.196Z,94907.31
2023-01-17T00:23:01.546Z,94906.72
2023-01-17T00:25:49.853Z,94906.72
2023-01-17T00:28:16.318Z,94909.44
2023-01-17T00:30:42.801Z,94909.50
2023-01-17T00:33:10.544Z,94907.81
2023-01-17T00:35:36.936Z,94910.75
2023-01-17T00:38:06.150Z,94913.25
2023-01-17T00:40:33.279Z,94912.97
2023-01-17T00:43:18.379Z,94912.97
2023-01-17T00:46:04.174Z,94919.81
2023-01-17T00:48:50.612Z,94906.84
2023-01-17T00:51:38.045Z,94924.44
2023-01-17T00:54:23.952Z,94926.66
2023-01-17T00:57:09.199Z,94924.81
2023-01-17T00:59:54.445Z,94928.28
2023-01-17T01:02:42.830Z,94927.66
2023-01-17T01:05:31.055Z,94926.75
2023-01-17T01:08:16.477Z,94931.88
2023-01-17T01:11:02.459Z,94944.72
2023-01-17T01:13:48.632Z,94953.28
2023-01-17T01:16:34.501Z,94955.59
2023-01-17T01:19:20.129Z,94956.94
2023-01-17T01:22:06.472Z,94957.22
2023-01-17T01:24:51.794Z,94966.13
2023-01-17T01:27:37.127Z,94968.47
2023-01-17T01:30:23.482Z,94961.22
2023-01-17T01:33:08.894Z,94966.44
2023-01-17T01:35:37.637Z,94959.78
2023-01-17T01:38:06.445Z,94970.25
2023-01-17T01:40:33.925Z,94973.94
2023-01-17T01:43:05.567Z,94969.75
2023-01-17T01:45:33.773Z,94981.28
2023-01-17T01:48:04.865Z,94989.63
2023-01-17T01:50:35.943Z,94986.63
2023-01-17T01:53:07.019Z,94987.22
2023-01-17T01:55:37.740Z,94988.53
2023-01-17T01:58:10.888Z,94989.44
2023-01-17T02:00:41.437Z,94981.41
2023-01-17T02:03:12.869Z,94982.88
2023-01-17T02:05:42.416Z,94989.06
2023-01-17T02:08:13.718Z,94993.72
2023-01-17T02:10:43.865Z,94995.09
2023-01-17T02:13:13.843Z,94993.09
2023-01-17T02:15:51.571Z,95001.22
2023-01-17T02:18:33.168Z,94999.59
2023-01-17T02:21:15.929Z,95007.44
2023-01-17T02:24:15.013Z,95001.47
2023-01-17T02:26:52.298Z,95003.56
2023-01-17T02:29:58.327Z,95007.94
2023-01-17T02:32:36.649Z,95009.78
2023-01-17T02:35:10.668Z,95023.03
2023-01-17T02:37:46.697Z,95015.06
2023-01-17T02:40:19.865Z,95009.44
2023-01-17T02:42:55.904Z,95016.66
2023-01-17T02:45:23.794Z,95013.13
2023-01-17T02:47:52.555Z,95011.06
2023-01-17T02:50:25.096Z,95013.66
2023-01-17T02:53:08.878Z,95012.84
2023-01-17T02:55:49.363Z,95012.06
2023-01-17T02:58:32.636Z,95007.94
2023-01-17T03:01:10.935Z,95020.91
2023-01-17T03:03:50.465Z,95006.69
2023-01-17T03:06:21.705Z,95008.84
2023-01-17T03:08:52.142Z,95012.06
2023-01-17T03:11:20.261Z,95021.56
2023-01-17T03:13:47.741Z,95015.50
2023-01-17T03:16:19.534Z,95017.00
2023-01-17T03:18:49.183Z,95024.81
2023-01-17T03:21:16.735Z,95042.97
2023-01-17T03:23:44.158Z,95034.22
2023-01-17T03:26:11.725Z,95041.88
2023-01-17T03:28:39.200Z,95044.19
2023-01-17T03:31:07.279Z,95047.09
2023-01-17T03:33:34.845Z,95045.34
2023-01-17T03:36:04.678Z,95053.97
2023-01-17T03:38:32.174Z,95038.19
2023-01-17T03:40:59.678Z,95047.50
2023-01-17T03:43:27.136Z,95055.69
2023-01-17T03:46:03.081Z,95058.31
2023-01-17T03:48:31.042Z,95060.34
2023-01-17T03:50:58.538Z,95061.31
2023-01-17T03:53:27.363Z,95057.72
2023-01-17T03:55:54.847Z,95063.75
2023-01-17T03:58:22.293Z,95069.91
2023-01-17T04:00:49.754Z,95065.78
2023-01-17T04:03:17.222Z,95066.84
2023-01-17T04:05:47.095Z,95076.13
2023-01-17T04:08:14.543Z,95063.50
2023-01-17T04:10:43.482Z,95067.97
2023-01-17T04:13:10.925Z,95071.53
2023-01-17T04:15:38.483Z,95068.66
2023-01-17T04:18:07.475Z,95071.31
2023-01-17T04:20:36.183Z,95064.16
2023-01-17T04:23:03.855Z,95069.22
2023-01-17T04:25:31.545Z,95071.66
2023-01-17T04:28:02.162Z,95076.66
2023-01-17T04:30:30.114Z,95070.13
2023-01-17T04:32:58.097Z,95073.56
2023-01-17T04:35:25.975Z,95074.78
2023-01-17T04:37:53.765Z,95075.34
2023-01-17T04:40:21.222Z,95085.25
2023-01-17T04:42:49.090Z,95088.25
2023-01-17T04:45:19.699Z,95100.25
2023-01-17T04:47:47.157Z,95086.22
2023-01-17T04:50:14.607Z,95092.00
2023-01-17T04:52:45.149Z,95104.53
2023-01-17T04:55:12.601Z,95107.03
2023-01-17T04:57:40.071Z,95116.94
2023-01-17T05:00:08.971Z,95115.25
2023-01-17T05:02:37.794Z,95115.38
2023-01-17T05:05:06.238Z,95113.63
2023-01-17T05:07:35.687Z,95116.41
2023-01-17T05:10:04.384Z,95114.72
2023-01-17T05:12:31.844Z,95124.91
2023-01-17T05:14:59.265Z,95116.22
2023-01-17T05:17:26.750Z,95112.84
2023-01-17T05:19:55.522Z,95123.47
2023-01-17T05:22:23.005Z,95119.81
2023-01-17T05:24:50.452Z,95119.19
2023-01-17T05:27:17.922Z,95109.91
2023-01-17T05:29:45.389Z,95115.72
2023-01-17T05:32:12.851Z,95105.78
2023-01-17T05:34:43.253Z,95115.94
2023-01-17T05:37:12.007Z,95107.03
2023-01-17T05:39:39.468Z,95122.75
2023-01-17T05:42:07.012Z,95126.50
2023-01-17T05:44:34.454Z,95124.56
2023-01-17T05:47:01.873Z,95131.22
2023-01-17T05:49:29.397Z,95129.38
2023-01-17T05:51:57.902Z,95135.59
2023-01-17T05:54:26.685Z,95143.78
2023-01-17T05:56:54.253Z,95145.84
2023-01-17T05:59:35.922Z,95145.31
2023-01-17T06:02:04.206Z,95145.44
2023-01-17T06:04:31.819Z,95149.03
2023-01-17T06:06:59.292Z,95162.69
2023-01-17T06:09:28.088Z,95176.50
2023-01-17T06:11:55.508Z,95183.81
2023-01-17T06:14:23.002Z,95192.97
2023-01-17T06:16:50.445Z,95183.81
2023-01-17T06:19:17.898Z,95181.63
2023-01-17T06:21:45.334Z,95173.25
2023-01-17T06:24:13.027Z,95179.53
2023-01-17T06:26:44.280Z,95160.81
2023-01-17T06:29:12.116Z,95162.25
2023-01-17T06:31:39.660Z,95164.94
2023-01-17T06:34:07.131Z,95152.25
2023-01-17T06:36:34.747Z,95141.66
2023-01-17T06:39:02.198Z,95140.91
2023-01-17T06:41:29.795Z,95140.16
2023-01-17T06:43:58.633Z,95148.66
2023-01-17T06:46:26.096Z,95150.03
2023-01-17T06:48:53.578Z,95146.56
2023-01-17T06:51:21.216Z,95149.59
2023-01-17T06:53:48.997Z,95150.78
2023-01-17T06:56:16.544Z,95145.50
2023-01-17T06:58:43.987Z,95148.09
2023-01-17T07:01:14.162Z,95153.00
2023-01-17T07:03:41.882Z,95170.94
2023-01-17T07:06:09.994Z,95170.69
2023-01-17T07:08:37.668Z,95171.13
2023-01-17T07:11:08.489Z,95175.44
2023-01-17T07:13:36.798Z,95173.16
2023-01-17T07:16:05.146Z,95179.69
2023-01-17T07:18:35.434Z,95170.09
2023-01-17T07:21:02.870Z,95183.34
2023-01-17T07:23:30.335Z,95181.09
2023-01-17T07:26:00.044Z,95179.44
2023-01-17T07:28:29.105Z,95179.84
2023-01-17T07:30:57.245Z,95183.09
2023-01-17T07:33:24.845Z,95192.63
2023-01-17T07:35:53.656Z,95181.09
2023-01-17T07:38:21.304Z,95181.78
2023-01-17T07:40:48.838Z,95171.31
2023-01-17T07:43:16.797Z,95173.97
2023-01-17T07:45:45.573Z,95163.81
2023-01-17T07:48:13.471Z,95159.00
2023-01-17T07:50:40.937Z,95155.78
2023-01-17T07:53:10.768Z,95147.63
2023-01-17T07:55:38.479Z,95144.91
2023-01-17T07:58:05.917Z,95149.78
2023-01-17T08:00:33.476Z,95157.13
2023-01-17T08:03:02.019Z,95149.38
2023-01-17T08:05:30.579Z,95158.34
2023-01-17T08:07:58.043Z,95167.38
2023-01-17T08:10:26.957Z,95164.69
2023-01-17T08:12:55.272Z,95159.78
2023-01-17T08:15:23.466Z,95162.38
2023-01-17T08:17:53.074Z,95156.66
2023-01-17T08:20:22.170Z,95164.19
2023-01-17T08:22:49.500Z,95172.13
2023-01-17T08:25:17.037Z,95173.59
2023-01-17T08:27:45.826Z,95164.19
2023-01-17T08:30:13.632Z,95154.88
2023-01-17T08:32:41.394Z,95154.50
2023-01-17T08:35:09.781Z,95152.84
2023-01-17T08:37:38.310Z,95147.38
2023-01-17T08:40:07.112Z,95149.38
2023-01-17T08:42:39.148Z,95144.72
2023-01-17T08:45:11.225Z,95149.75
2023-01-17T08:47:39.416Z,95149.38
2023-01-17T08:50:07.610Z,95153.34
2023-01-17T08:52:35.962Z,95163.44
2023-01-17T08:55:05.738Z,95158.09
2023-01-17T08:57:33.362Z,95157.44
2023-01-17T09:00:00.802Z,95152.16
2023-01-17T09:02:29.657Z,95154.97
2023-01-17T09:04:57.141Z,95147.69
2023-01-17T09:07:26.809Z,95154.88
2023-01-17T09:09:54.509Z,95146.94
2023-01-17T09:12:22.471Z,95152.56
2023-01-17T09:14:49.948Z,95161.88
2023-01-17T09:17:17.399Z,95165.22
2023-01-17T09:19:48.543Z,95163.53
2023-01-17T09:22:16.373Z,95157.78
2023-01-17T09:24:43.808Z,95162.69
2023-01-17T09:27:11.290Z,95161.94
2023-01-17T09:29:38.743Z,95160.59
2023-01-17T09:32:06.622Z,95161.13
2023-01-17T09:34:36.451Z,95152.38
2023-01-17T09:37:05.234Z,95155.88
2023-01-17T09:39:32.663Z,95150.41
2023-01-17T09:42:04.100Z,95150.97
2023-01-17T09:44:42.844Z,95155.59
2023-01-17T09:47:19.205Z,95161.00
2023-01-17T09:49:48.205Z,95155.44
2023-01-17T09:52:19.584Z,95159.28
2023-01-17T09:54:48.837Z,95165.06
2023-01-17T09:57:34.581Z,95165.69
2023-01-17T10:00:12.718Z,95162.81
2023-01-17T10:02:52.171Z,95161.03
2023-01-17T10:05:31.871Z,95157.03
2023-01-17T10:08:15.671Z,95151.69
2023-01-17T10:10:48.531Z,95143.03
2023-01-17T10:13:37.680Z,95145.50
2023-01-17T10:16:29.249Z,95141.78
2023-01-17T10:19:10.321Z,95131.44
2023-01-17T10:21:58.950Z,95133.63
2023-01-17T10:24:58.111Z,95132.72
2023-01-17T10:27:30.005Z,95124.63
2023-01-17T10:29:57.493Z,95118.13
2023-01-17T10:32:33.206Z,95130.47
2023-01-17T10:35:04.326Z,95131.91
2023-01-17T10:37:41.209Z,95119.09
2023-01-17T10:40:20.794Z,95121.31
2023-01-17T10:42:53.067Z,95119.22
2023-01-17T10:45:25.590Z,95111.28
2023-01-17T10:48:03.676Z,95108.03
2023-01-17T10:50:40.076Z,95097.63
2023-01-17T10:53:11.623Z,95104.19
2023-01-17T10:55:50.452Z,95095.41
2023-01-17T10:58:18.017Z,95100.56
2023-01-17T11:00:50.946Z,95103.63
2023-01-17T11:03:20.660Z,95099.41
2023-01-17T11:06:16.416Z,95091.88
2023-01-17T11:08:51.978Z,95080.72
2023-01-17T11:11:22.073Z,95082.81
2023-01-17T11:13:51.336Z,95070.66
2023-01-17T11:16:22.064Z,95062.78
2023-01-17T11:19:06.324Z,95050.09
2023-01-17T11:21:34.243Z,95050.09
2023-01-17T11:24:11.148Z,95056.16
2023-01-17T11:26:48.437Z,95055.69
2023-01-17T11:29:26.527Z,95045.31
2023-01-17T11:31:54.147Z,95031.06
2023-01-17T11:34:24.926Z,95028.97
2023-01-17T11:37:15.649Z,95020.22
2023-01-17T11:39:44.444Z,95012.78
2023-01-17T11:42:34.897Z,95013.06
2023-01-17T11:45:33.450Z,95015.72
2023-01-17T11:48:16.424Z,94999.91
2023-01-17T11:50:48.003Z,94986.81
2023-01-17T11:53:22.285Z,94987.38
2023-01-17T11:55:54.813Z,94982.94
2023-01-17T11:58:24.494Z,94979.63
2023-01-17T12:00:59.559Z,94975.44
2023-01-17T12:03:42.741Z,94987.19
2023-01-17T12:06:17.854Z,94993.81
2023-01-17T12:08:58.528Z,94989.44
2023-01-17T12:11:35.957Z,94995.88
2023-01-17T12:14:15.703Z,94989.41
2023-01-17T12:16:57.001Z,94997.00
2023-01-17T12:19:32.201Z,94996.25
2023-01-17T12:22:12.282Z,94989.88
2023-01-17T12:24:58.279Z,94986.50
2023-01-17T12:27:34.734Z,95003.84
2023-01-17T12:30:22.187Z,95011.47
2023-01-17T12:32:59.837Z,95019.56
2023-01-17T12:35:32.708Z,94994.03
2023-01-17T12:38:06.709Z,94992.03
2023-01-17T12:40:42.705Z,94996.31
2023-01-17T12:43:19.484Z,94992.31
2023-01-17T12:45:50.327Z,94964.81
2023-01-17T12:48:19.553Z,94959.94
2023-01-17T12:50:53.695Z,94946.19
2023-01-17T12:53:31.284Z,94947.00
2023-01-17T12:56:02.904Z,94945.16
2023-01-17T12:58:37.706Z,94940.59
2023-01-17T13:01:14.365Z,94942.94
2023-01-17T13:03:49.737Z,94955.38
2023-01-17T13:06:36.839Z,94956.41
2023-01-17T13:09:06.322Z,94965.22
2023-01-17T13:11:43.722Z,94964.19
2023-01-17T13:14:11.684Z,94959.03
2023-01-17T13:16:45.218Z,94939.63
2023-01-17T13:19:21.266Z,94968.56
2023-01-17T13:21:50.451Z,94960.63
2023-01-17T13:24:31.574Z,94958.53
2023-01-17T13:27:21.112Z,94958.28
2023-01-17T13:30:04.876Z,94957.78
2023-01-17T13:32:52.419Z,94947.94
2023-01-17T13:35:28.861Z,94950.28
2023-01-17T13:38:21.548Z,94947.13
2023-01-17T13:40:54.428Z,94937.69
2023-01-17T13:43:25.610Z,94926.53
2023-01-17T13:45:55.729Z,94926.78
2023-01-17T13:48:34.511Z,94940.59
2023-01-17T13:51:03.647Z,94940.50
2023-01-17T13:53:49.068Z,94937.94
2023-01-17T13:56:34.339Z,94918.22
2023-01-17T13:59:32.738Z,94922.38
2023-01-17T14:02:00.341Z,94928.50
2023-01-17T14:05:01.373Z,94923.13
2023-01-17T14:07:30.119Z,94905.16
2023-01-17T14:09:58.178Z,94908.19
2023-01-17T14:12:31.344Z,94912.28
2023-01-17T14:15:03.594Z,94915.53
2023-01-17T14:17:49.279Z,94913.41
2023-01-17T14:21:05.244Z,94903.72
2023-01-17T14:23:49.668Z,94898.03
2023-01-17T14:29:45.574Z,94883.63
2023-01-17T14:32:16.887Z,94884.13
2023-01-17T14:34:46.304Z,94877.72
2023-01-17T14:37:40.211Z,94873.28
2023-01-17T14:40:20.989Z,94858.81
2023-01-17T14:42:54.626Z,94875.75
2023-01-17T14:45:27.834Z,94868.34
2023-01-17T14:47:58.297Z,94875.69
2023-01-17T14:50:29.159Z,94876.34
2023-01-17T14:53:17.426Z,94882.56
2023-01-17T14:55:56.429Z,94868.97
2023-01-17T14:58:26.676Z,94860.81
2023-01-17T15:00:58.292Z,94871.44
2023-01-17T15:03:27.942Z,94880.38
2023-01-17T15:05:57.476Z,94863.97
2023-01-17T15:08:33.044Z,94874.94
2023-01-17T15:11:05.162Z,94878.75
2023-01-17T15:13:44.327Z,94867.19
2023-01-17T15:16:20.190Z,94853.06
2023-01-17T15:18:49.535Z,94863.91
2023-01-17T15:21:20.352Z,94854.94
2023-01-17T15:23:49.805Z,94860.75
2023-01-17T15:26:24.571Z,94861.63
2023-01-17T15:28:52.924Z,94866.69
2023-01-17T15:31:24.371Z,94865.16
2023-01-17T15:33:57.124Z,94863.16
2023-01-17T15:36:30.020Z,94858.16
2023-01-17T15:39:00.085Z,94854.72
2023-01-17T15:41:30.821Z,94860.56
2023-01-17T15:43:58.784Z,94866.63
2023-01-17T15:46:31.668Z,94857.88
2023-01-17T15:49:18.055Z,94862.56
2023-01-17T15:51:49.701Z,94867.03
2023-01-17T15:54:33.931Z,94869.69
2023-01-17T15:57:18.462Z,94861.38
2023-01-17T15:59:48.758Z,94855.72
2023-01-17T16:02:35.046Z,94858.31
2023-01-17T16:05:21.133Z,94864.69
2023-01-17T16:07:49.861Z,94862.28
2023-01-17T16:10:18.587Z,94869.78
2023-01-17T16:12:47.000Z,94860.31
2023-01-17T16:15:17.549Z,94857.44
2023-01-17T16:17:49.434Z,94861.47
2023-01-17T16:20:22.190Z,94855.00
2023-01-17T16:22:50.917Z,94855.00
2023-01-17T16:25:20.472Z,94854.41
2023-01-17T16:27:48.798Z,94854.41
2023-01-17T16:30:18.798Z,94866.25
2023-01-17T16:32:49.331Z,94865.25
2023-01-17T16:35:20.629Z,94866.88
2023-01-17T16:37:50.486Z,94863.63
2023-01-17T16:40:18.893Z,94877.31
2023-01-17T16:42:47.079Z,94876.84
2023-01-17T16:45:15.092Z,94877.88
2023-01-17T16:47:43.678Z,94888.25
2023-01-17T16:50:13.048Z,94891.13
2023-01-17T16:52:43.433Z,94890.19
2023-01-17T16:55:13.806Z,94886.94
2023-01-17T16:57:41.700Z,94883.25
2023-01-17T17:00:12.238Z,94886.72
2023-01-17T17:02:40.720Z,94883.25
2023-01-17T17:05:10.395Z,94886.72
2023-01-17T17:07:44.128Z,94880.16
2023-01-17T17:10:14.931Z,94882.97
2023-01-17T17:12:42.605Z,94887.81
2023-01-17T17:15:11.457Z,94884.56
2023-01-17T17:17:41.356Z,94884.56
2023-01-17T17:20:10.955Z,94884.56
2023-01-17T17:22:38.679Z,94876.63
2023-01-17T17:25:09.162Z,94876.06
2023-01-17T17:27:38.229Z,94867.31
2023-01-17T17:30:06.125Z,94871.22
2023-01-17T17:32:33.635Z,94875.91
2023-01-17T17:35:01.185Z,94870.69
2023-01-17T17:37:28.987Z,94875.34
2023-01-17T17:39:56.585Z,94878.19
2023-01-17T17:42:24.134Z,94885.09
2023-01-17T17:44:53.511Z,94884.28
2023-01-17T17:47:21.071Z,94878.41
2023-01-17T17:49:48.555Z,94883.56
2023-01-17T17:52:16.102Z,94877.47
2023-01-17T17:54:43.607Z,94877.47
2023-01-17T17:57:11.121Z,94879.28
2023-01-17T17:59:38.653Z,94890.09
2023-01-17T18:02:10.731Z,94884.59
2023-01-17T18:04:38.685Z,94893.09
2023-01-17T18:07:06.218Z,94888.25
2023-01-17T18:09:33.653Z,94882.59
2023-01-17T18:12:02.752Z,94887.19
2023-01-17T18:14:30.130Z,94888.69
2023-01-17T18:16:57.615Z,94889.50
2023-01-17T18:19:27.284Z,94891.56
2023-01-17T18:21:54.968Z,94893.38
2023-01-17T18:24:24.182Z,94890.38
2023-01-17T18:26:53.259Z,94888.53
2023-01-17T18:29:21.571Z,94884.94
2023-01-17T18:31:50.877Z,94885.16
2023-01-17T18:34:21.093Z,94890.00
2023-01-17T18:36:50.436Z,94890.66
2023-01-17T18:39:20.308Z,94893.91
2023-01-17T18:41:49.361Z,94892.28
2023-01-17T18:44:17.058Z,94890.66
2023-01-17T18:46:44.501Z,94891.91
2023-01-17T18:49:14.677Z,94892.47
2023-01-17T18:51:46.400Z,94891.03
2023-01-17T18:54:15.345Z,94879.69
2023-01-17T18:56:43.300Z,94876.25
2023-01-17T18:59:15.922Z,94875.44
2023-01-17T19:01:43.615Z,94879.53
2023-01-17T19:04:12.413Z,94889.91
2023-01-17T19:06:42.154Z,94878.75
2023-01-17T19:09:11.673Z,94886.91
2023-01-17T19:11:42.921Z,94893.22
2023-01-17T19:14:11.933Z,94893.00
2023-01-17T19:16:40.923Z,94901.16
2023-01-17T19:19:10.922Z,94907.63
2023-01-17T19:21:38.827Z,94903.13
2023-01-17T19:24:06.877Z,94908.06
2023-01-17T19:26:34.358Z,94910.63
2023-01-17T19:29:05.100Z,94915.66
2023-01-17T19:31:37.079Z,94912.53
2023-01-17T19:34:04.740Z,94916.44
2023-01-17T19:36:35.451Z,94915.00
2023-01-17T19:39:06.258Z,94924.91
2023-01-17T19:41:35.753Z,94911.47
2023-01-17T19:44:06.104Z,94918.78
2023-01-17T19:46:35.095Z,94917.09
2023-01-17T19:49:03.401Z,94922.94
2023-01-17T19:51:31.066Z,94922.53
2023-01-17T19:54:01.030Z,94922.31
2023-01-17T19:56:29.866Z,94924.94
2023-01-17T19:59:00.776Z,94922.31
2023-01-17T20:01:32.495Z,94921.94
2023-01-17T20:04:01.130Z,94926.19
2023-01-17T20:06:30.487Z,94932.06
2023-01-17T20:08:58.661Z,94928.91
2023-01-17T20:11:27.731Z,94930.78
2023-01-17T20:13:55.949Z,94925.59
2023-01-17T20:16:24.997Z,94919.09
2023-01-17T20:18:53.817Z,94931.06
2023-01-17T20:21:23.415Z,94927.00
2023-01-17T20:23:52.316Z,94936.34
2023-01-17T20:26:22.088Z,94933.69
2023-01-17T20:28:51.808Z,94932.34
2023-01-17T20:31:21.308Z,94942.31
2023-01-17T20:33:50.448Z,94935.06
2023-01-17T20:36:20.109Z,94942.97
2023-01-17T20:38:48.599Z,94936.97
2023-01-17T20:41:17.642Z,94935.25
2023-01-17T20:43:47.447Z,94933.44
2023-01-17T20:46:17.619Z,94927.03
2023-01-17T20:48:46.376Z,94931.69
2023-01-17T20:51:14.601Z,94932.34
2023-01-17T20:53:44.958Z,94932.56
2023-01-17T20:56:14.907Z,94941.06
2023-01-17T20:58:42.459Z,94939.34
2023-01-17T21:01:11.202Z,94933.97
2023-01-17T21:03:39.929Z,94938.44
2023-01-17T21:06:09.295Z,94931.31
2023-01-17T21:08:38.384Z,94936.34
2023-01-17T21:11:07.878Z,94938.50
2023-01-17T21:13:35.570Z,94936.66
2023-01-17T21:16:03.613Z,94940.78
2023-01-17T21:18:32.094Z,94935.44
2023-01-17T21:21:03.510Z,94935.44
2023-01-17T21:23:30.982Z,94937.53
2023-01-17T21:25:58.924Z,94938.88
2023-01-17T21:28:31.963Z,94935.91
2023-01-17T21:31:20.358Z,94930.81
2023-01-17T21:33:48.599Z,94923.75
2023-01-17T21:36:16.282Z,94926.22
2023-01-17T21:38:45.280Z,94930.59
2023-01-17T21:41:12.710Z,94925.97
2023-01-17T21:43:41.793Z,94924.06
2023-01-17T21:46:09.084Z,94926.63
2023-01-17T21:48:36.571Z,94928.84
2023-01-17T21:51:05.791Z,94925.22
2023-01-17T21:53:35.326Z,94938.41
2023-01-17T21:56:21.293Z,94937.84
2023-01-17T21:58:53.812Z,94928.47
2023-01-17T22:01:22.774Z,94932.88
2023-01-17T22:03:51.220Z,94922.69
2023-01-17T22:06:19.080Z,94932.53
2023-01-17T22:08:46.750Z,94929.66
2023-01-17T22:11:16.726Z,94931.03
2023-01-17T22:13:45.355Z,94931.63
2023-01-17T22:16:16.097Z,94935.31
2023-01-17T22:18:44.734Z,94937.88
2023-01-17T22:21:14.322Z,94939.06
2023-01-17T22:23:46.101Z,94945.94
2023-01-17T22:26:13.587Z,94940.88
2023-01-17T22:28:41.770Z,94933.28
2023-01-17T22:31:12.107Z,94941.09
2023-01-17T22:33:42.567Z,94933.81
2023-01-17T22:36:13.566Z,94930.31
2023-01-17T22:38:41.568Z,94931.94
2023-01-17T22:41:10.455Z,94923.56
2023-01-17T22:43:40.334Z,94920.81
2023-01-17T22:46:09.807Z,94937.91
2023-01-17T22:48:38.420Z,94937.69
2023-01-17T22:51:09.048Z,94936.13
2023-01-17T22:53:41.108Z,94928.56
2023-01-17T22:56:12.006Z,94925.22
2023-01-17T22:58:44.383Z,94923.13
2023-01-17T23:01:14.194Z,94912.75
2023-01-17T23:03:42.612Z,94930.53
2023-01-17T23:06:14.464Z,94923.22
2023-01-17T23:08:43.558Z,94921.28
2023-01-17T23:11:40.479Z,94918.16
2023-01-17T23:14:10.230Z,94916.41
2023-01-17T23:16:55.711Z,94918.00
2023-01-17T23:19:23.644Z,94916.84
2023-01-17T23:22:14.501Z,94911.69
2023-01-17T23:24:43.898Z,94921.69
2023-01-17T23:27:30.664Z,94917.28
2023-01-17T23:29:58.147Z,94914.91
2023-01-17T23:32:26.151Z,94912.91
2023-01-17T23:34:53.865Z,94914.19
2023-01-17T23:37:43.036Z,94920.41
2023-01-17T23:40:12.207Z,94895.69
2023-01-17T23:42:57.872Z,94896.94
2023-01-17T23:45:25.657Z,94898.59
2023-01-17T23:47:53.129Z,94908.59
2023-01-17T23:50:20.588Z,94911.19
2023-01-17T23:52:49.728Z,94900.94
2023-01-17T23:55:17.928Z,94893.44
2023-01-17T23:57:45.608Z,94898.13
